createdAt,value
2019-03-10T00:02:28.691Z,7.13
2019-03-10T00:04:58.940Z,7.12
2019-03-10T00:07:29.389Z,7.12
2019-03-10T00:09:59.689Z,7.13
2019-03-10T00:12:30.163Z,7.12
2019-03-10T00:15:00.510Z,7.13
2019-03-10T00:17:31.020Z,7.13
2019-03-10T00:20:01.422Z,7.15
2019-03-10T00:22:31.684Z,7.14
2019-03-10T00:25:01.851Z,7.15
2019-03-10T00:27:32.235Z,7.13
2019-03-10T00:30:02.554Z,7.12
2019-03-10T00:32:32.790Z,7.12
2019-03-10T00:35:03.223Z,7.11
2019-03-10T00:37:33.561Z,7.10
2019-03-10T00:41:11.102Z,7.09
2019-03-10T00:44:45.107Z,7.08
2019-03-10T00:47:59.578Z,7.04
2019-03-10T00:51:24.702Z,6.99
2019-03-10T00:53:54.819Z,6.98
2019-03-10T00:56:25.040Z,6.97
2019-03-10T00:58:55.249Z,6.99
2019-03-10T01:01:25.473Z,6.97
2019-03-10T01:03:55.835Z,6.96
2019-03-10T01:06:26.181Z,6.96
2019-03-10T01:08:56.457Z,6.94
2019-03-10T01:11:26.771Z,6.93
2019-03-10T01:13:57.004Z,6.93
2019-03-10T01:16:27.489Z,6.92
2019-03-10T01:18:58.392Z,6.91
2019-03-10T01:21:29.019Z,6.87
2019-03-10T01:23:59.212Z,6.86
2019-03-10T01:26:29.434Z,6.84
2019-03-10T01:28:59.641Z,6.83
2019-03-10T01:32:05.468Z,6.79
2019-03-10T01:34:56.779Z,6.81
2019-03-10T01:37:26.898Z,6.82
2019-03-10T01:39:57.028Z,6.84
2019-03-10T01:42:27.214Z,6.83
2019-03-10T01:44:57.340Z,6.81
2019-03-10T01:47:27.427Z,6.81
2019-03-10T01:49:57.627Z,6.81
2019-03-10T01:52:27.894Z,6.80
2019-03-10T01:54:58.157Z,6.79
2019-03-10T01:57:28.339Z,6.79
2019-03-10T01:59:58.559Z,6.79
2019-03-10T02:02:28.781Z,6.80
2019-03-10T02:04:58.993Z,6.79
2019-03-10T02:07:29.128Z,6.79
2019-03-10T02:09:59.184Z,6.77
2019-03-10T02:12:29.414Z,6.77
2019-03-10T02:15:03.873Z,6.77
2019-03-10T02:17:39.696Z,6.78
2019-03-10T02:20:13.302Z,6.77
2019-03-10T02:22:43.388Z,6.78
2019-03-10T02:25:13.690Z,6.78
2019-03-10T02:27:43.817Z,6.76
2019-03-10T02:30:19.010Z,6.76
2019-03-10T02:32:49.201Z,6.78
2019-03-10T02:35:19.335Z,6.79
2019-03-10T02:37:54.187Z,6.79
2019-03-10T02:40:24.495Z,6.79
2019-03-10T02:42:54.713Z,6.80
2019-03-10T02:45:26.181Z,6.81
2019-03-10T02:47:56.315Z,6.82
2019-03-10T02:50:28.115Z,6.82
2019-03-10T02:52:58.363Z,6.82
2019-03-10T02:55:28.585Z,6.81
2019-03-10T02:57:58.735Z,6.82
2019-03-10T03:00:28.922Z,6.81
2019-03-10T03:02:59.061Z,6.82
2019-03-10T03:05:29.199Z,6.82
2019-03-10T03:07:59.403Z,6.81
2019-03-10T03:10:29.629Z,6.82
2019-03-10T03:12:59.831Z,6.81
2019-03-10T03:15:29.952Z,6.81
2019-03-10T03:18:00.070Z,6.81
2019-03-10T03:20:30.304Z,6.81
2019-03-10T03:23:00.531Z,6.80
2019-03-10T03:25:30.774Z,6.79
2019-03-10T03:28:02.376Z,6.78
2019-03-10T03:30:33.219Z,6.77
2019-03-10T03:33:03.538Z,6.76
2019-03-10T03:35:55.032Z,6.76
2019-03-10T03:38:39.364Z,6.75
2019-03-10T03:41:13.792Z,6.74
2019-03-10T03:43:44.236Z,6.74
2019-03-10T03:46:14.462Z,6.74
2019-03-10T03:48:44.663Z,6.74
2019-03-10T03:51:14.943Z,6.74
2019-03-10T03:53:45.078Z,6.72
2019-03-10T03:56:15.298Z,6.73
2019-03-10T03:58:45.540Z,6.73
2019-03-10T04:01:19.435Z,6.74
2019-03-10T04:03:49.841Z,6.73
2019-03-10T04:06:20.321Z,6.73
2019-03-10T04:08:50.772Z,6.73
2019-03-10T04:11:21.196Z,6.74
2019-03-10T04:13:51.395Z,6.75
2019-03-10T04:16:21.855Z,6.75
2019-03-10T04:18:52.340Z,6.75
2019-03-10T04:21:22.820Z,6.73
2019-03-10T04:23:53.189Z,6.74
2019-03-10T04:26:23.481Z,6.73
2019-03-10T04:28:53.701Z,6.72
2019-03-10T04:31:24.063Z,6.71
2019-03-10T04:33:57.045Z,6.71
2019-03-10T04:36:27.269Z,6.72
2019-03-10T04:39:00.587Z,6.72
2019-03-10T04:41:30.905Z,6.72
2019-03-10T04:44:01.121Z,6.72
2019-03-10T04:46:31.644Z,6.71
2019-03-10T04:49:01.754Z,6.70
2019-03-10T04:51:31.941Z,6.68
2019-03-10T04:54:02.012Z,6.65
2019-03-10T04:56:42.802Z,6.65
2019-03-10T04:59:12.931Z,6.65
2019-03-10T05:01:43.109Z,6.66
2019-03-10T05:04:13.311Z,6.65
2019-03-10T05:06:43.561Z,6.65
2019-03-10T05:09:15.502Z,6.64
2019-03-10T05:11:46.753Z,6.64
2019-03-10T05:14:16.816Z,6.65
2019-03-10T05:16:46.941Z,6.66
2019-03-10T05:19:17.049Z,6.66
2019-03-10T05:21:47.128Z,6.68
2019-03-10T05:24:17.402Z,6.73
2019-03-10T05:26:47.597Z,6.77
2019-03-10T05:29:17.665Z,6.80
2019-03-10T05:31:47.917Z,6.82
2019-03-10T05:34:17.971Z,6.82
2019-03-10T05:36:48.150Z,6.84
2019-03-10T05:39:18.265Z,6.83
2019-03-10T05:41:48.385Z,6.85
2019-03-10T05:44:18.526Z,6.86
2019-03-10T05:46:48.575Z,6.86
2019-03-10T05:49:18.619Z,6.82
2019-03-10T05:51:48.678Z,6.86
2019-03-10T05:54:18.823Z,6.87
2019-03-10T05:56:48.953Z,6.83
2019-03-10T05:59:19.045Z,6.82
2019-03-10T06:01:49.102Z,6.85
2019-03-10T06:04:19.241Z,6.85
2019-03-10T06:06:49.285Z,6.87
2019-03-10T06:09:19.400Z,6.91
2019-03-10T06:11:49.508Z,6.91
2019-03-10T06:14:19.654Z,6.94
2019-03-10T06:16:49.774Z,6.95
2019-03-10T06:19:19.801Z,6.97
2019-03-10T06:21:49.896Z,6.95
2019-03-10T06:24:19.976Z,6.93
2019-03-10T06:26:50.121Z,6.91
2019-03-10T06:29:22.483Z,6.92
2019-03-10T06:31:52.863Z,6.94
2019-03-10T06:34:23.359Z,6.93
2019-03-10T06:36:53.786Z,6.93
2019-03-10T06:39:24.215Z,6.91
2019-03-10T06:41:54.644Z,7.01
2019-03-10T06:44:26.991Z,7.06
2019-03-10T06:46:57.319Z,7.13
2019-03-10T06:49:27.771Z,7.16
2019-03-10T06:51:58.196Z,7.20
2019-03-10T06:54:28.606Z,7.25
2019-03-10T06:56:59.038Z,7.28
2019-03-10T06:59:29.464Z,7.30
2019-03-10T07:01:59.918Z,7.34
2019-03-10T07:04:30.396Z,7.38
2019-03-10T07:07:00.842Z,7.42
2019-03-10T07:09:31.392Z,7.43
2019-03-10T07:12:01.796Z,7.42
2019-03-10T07:14:32.214Z,7.44
2019-03-10T07:17:02.661Z,7.43
2019-03-10T07:19:33.080Z,7.44
2019-03-10T07:22:03.606Z,7.43
2019-03-10T07:24:34.033Z,7.44
2019-03-10T07:27:04.823Z,7.40
2019-03-10T07:29:42.936Z,7.47
2019-03-10T07:32:19.041Z,7.52
2019-03-10T07:35:11.431Z,7.51
2019-03-10T07:38:15.719Z,7.56
2019-03-10T07:41:01.361Z,7.56
2019-03-10T07:43:49.457Z,7.60
2019-03-10T07:46:48.013Z,7.65
2019-03-10T07:49:27.446Z,7.70
2019-03-10T07:52:20.604Z,7.71
2019-03-10T07:55:25.655Z,7.79
2019-03-10T07:58:24.586Z,7.89
2019-03-10T08:01:19.339Z,7.96
2019-03-10T08:04:11.764Z,8.07
2019-03-10T08:07:04.243Z,8.21
2019-03-10T08:09:53.701Z,8.31
2019-03-10T08:12:41.719Z,8.43
2019-03-10T08:15:29.654Z,8.51
2019-03-10T08:18:17.448Z,8.63
2019-03-10T08:20:58.084Z,8.76
2019-03-10T08:24:32.390Z,8.89
2019-03-10T08:27:17.523Z,8.99
2019-03-10T08:30:04.363Z,9.17
2019-03-10T08:32:53.407Z,9.35
2019-03-10T08:35:52.632Z,9.48
2019-03-10T08:38:33.730Z,9.54
2019-03-10T08:41:21.369Z,9.57
2019-03-10T08:43:59.053Z,9.66
2019-03-10T08:46:41.620Z,9.76
2019-03-10T08:49:44.460Z,9.88
2019-03-10T08:52:14.040Z,9.98
2019-03-10T08:54:59.776Z,9.98
2019-03-10T08:57:47.654Z,9.91
2019-03-10T09:00:36.797Z,9.88
2019-03-10T09:03:17.393Z,9.80
2019-03-10T09:06:09.567Z,9.70
2019-03-10T09:08:49.930Z,9.63
2019-03-10T09:14:14.182Z,9.63
2019-03-10T09:16:59.234Z,9.58
2019-03-10T09:19:51.475Z,9.59
2019-03-10T09:22:34.207Z,9.62
2019-03-10T09:25:29.348Z,9.56
2019-03-10T09:28:21.203Z,9.47
2019-03-10T09:31:16.236Z,9.43
2019-03-10T09:33:56.991Z,9.46
2019-03-10T09:36:40.068Z,9.50
2019-03-10T09:39:38.307Z,9.53
2019-03-10T09:42:25.798Z,9.53
2019-03-10T09:45:10.695Z,9.57
2019-03-10T09:48:02.970Z,9.56
2019-03-10T09:50:56.325Z,9.50
2019-03-10T09:53:34.600Z,9.50
2019-03-10T09:56:26.866Z,9.55
2019-03-10T09:59:24.119Z,9.58
2019-03-10T10:02:25.525Z,9.57
2019-03-10T10:05:03.379Z,9.55
2019-03-10T10:07:45.712Z,9.63
2019-03-10T10:10:38.001Z,9.68
2019-03-10T10:13:21.187Z,9.71
2019-03-10T10:16:25.642Z,9.70
2019-03-10T10:19:20.816Z,9.70
2019-03-10T10:22:00.795Z,9.66
2019-03-10T10:24:36.953Z,9.52
2019-03-10T10:27:23.232Z,9.39
2019-03-10T10:30:18.422Z,9.27
2019-03-10T10:33:06.905Z,9.13
2019-03-10T10:35:47.347Z,9.05
2019-03-10T10:38:39.465Z,8.95
2019-03-10T10:41:27.949Z,8.92
2019-03-10T10:44:12.392Z,8.95
2019-03-10T10:46:49.668Z,9.04
2019-03-10T10:49:37.913Z,9.06
2019-03-10T10:52:20.100Z,9.08
2019-03-10T10:55:00.835Z,9.08
2019-03-10T10:57:42.688Z,9.12
2019-03-10T11:00:27.789Z,9.12
2019-03-10T11:03:23.641Z,9.15
2019-03-10T11:06:19.949Z,9.18
2019-03-10T11:09:04.484Z,9.18
2019-03-10T11:11:53.548Z,9.18
2019-03-10T11:14:48.682Z,9.20
2019-03-10T11:17:37.826Z,9.12
2019-03-10T11:20:33.711Z,9.02
2019-03-10T11:23:28.766Z,8.89
2019-03-10T11:26:30.105Z,8.81
2019-03-10T11:29:09.448Z,8.75
2019-03-10T11:32:01.444Z,8.71
2019-03-10T11:34:43.000Z,8.63
2019-03-10T11:37:29.843Z,8.55
2019-03-10T11:40:33.975Z,8.54
2019-03-10T11:43:09.199Z,8.48
2019-03-10T11:45:57.867Z,8.42
2019-03-10T11:48:52.963Z,8.37
2019-03-10T11:51:39.816Z,8.37
2019-03-10T11:54:17.774Z,8.34
2019-03-10T11:57:19.121Z,8.30
2019-03-10T12:00:11.576Z,8.31
2019-03-10T12:03:04.027Z,8.33
2019-03-10T12:05:56.869Z,8.33
2019-03-10T12:08:58.106Z,8.27
2019-03-10T12:11:28.502Z,8.25
2019-03-10T12:13:58.596Z,8.24
2019-03-10T12:16:31.081Z,8.25
2019-03-10T12:19:00.957Z,8.25
2019-03-10T12:21:31.141Z,8.20
2019-03-10T12:24:01.477Z,8.15
2019-03-10T12:26:36.209Z,8.14
2019-03-10T12:29:06.965Z,8.12
2019-03-10T12:31:37.230Z,8.05
2019-03-10T12:34:07.596Z,7.91
2019-03-10T12:36:37.784Z,7.79
2019-03-10T12:39:09.596Z,7.67
2019-03-10T12:41:39.817Z,7.58
2019-03-10T12:45:48.088Z,7.80
2019-03-10T12:48:19.049Z,7.69
2019-03-10T12:50:49.180Z,7.65
2019-03-10T12:53:19.413Z,7.56
2019-03-10T12:55:49.585Z,7.48
2019-03-10T12:58:19.827Z,7.33
2019-03-10T13:00:50.070Z,7.22
2019-03-10T13:03:20.248Z,7.12
2019-03-10T13:05:50.446Z,7.06
2019-03-10T13:08:20.530Z,6.99
2019-03-10T13:11:08.888Z,6.91
2019-03-10T13:13:39.286Z,6.85
2019-03-10T13:16:12.248Z,6.78
2019-03-10T13:18:41.651Z,6.73
2019-03-10T13:21:11.959Z,6.72
2019-03-10T13:23:42.288Z,6.68
2019-03-10T13:26:12.403Z,6.69
2019-03-10T13:28:42.639Z,6.72
2019-03-10T13:31:13.022Z,6.73
2019-03-10T13:33:43.318Z,6.74
2019-03-10T13:36:13.581Z,6.70
2019-03-10T13:38:43.807Z,6.63
2019-03-10T13:41:14.103Z,6.55
2019-03-10T13:43:44.361Z,6.46
2019-03-10T13:46:14.701Z,6.36
2019-03-10T13:48:45.031Z,6.26
2019-03-10T13:51:15.288Z,6.19
2019-03-10T13:53:45.511Z,6.10
2019-03-10T13:56:15.680Z,5.99
2019-03-10T13:58:45.887Z,5.94
2019-03-10T14:01:16.178Z,5.84
2019-03-10T14:03:46.411Z,5.79
2019-03-10T14:06:16.658Z,5.75
2019-03-10T14:08:46.815Z,5.71
2019-03-10T14:11:17.119Z,5.63
2019-03-10T14:13:47.272Z,5.58
2019-03-10T14:16:17.621Z,5.57
2019-03-10T14:18:47.822Z,5.53
2019-03-10T14:21:18.084Z,5.49
2019-03-10T14:23:48.298Z,5.42
2019-03-10T14:26:18.623Z,5.38
2019-03-10T14:28:48.952Z,5.32
2019-03-10T14:31:19.225Z,5.23
2019-03-10T14:33:49.558Z,5.10
2019-03-10T14:36:20.089Z,5.02
2019-03-10T14:38:50.446Z,5.02
2019-03-10T14:41:20.693Z,5.05
2019-03-10T14:43:50.976Z,5.05
2019-03-10T14:46:21.100Z,5.01
2019-03-10T14:48:51.297Z,4.96
2019-03-10T14:51:29.320Z,4.87
2019-03-10T14:54:02.617Z,4.77
2019-03-10T14:56:32.902Z,4.65
2019-03-10T14:59:02.994Z,4.52
2019-03-10T15:01:33.285Z,4.33
2019-03-10T15:04:05.059Z,4.10
2019-03-10T15:06:35.218Z,3.90
2019-03-10T15:09:07.239Z,3.73
2019-03-10T15:11:37.383Z,3.59
2019-03-10T15:14:07.627Z,3.51
2019-03-10T15:16:37.869Z,3.42
2019-03-10T15:19:08.184Z,3.40
2019-03-10T15:21:38.428Z,3.28
2019-03-10T15:24:08.575Z,3.16
2019-03-10T15:26:45.510Z,3.06
2019-03-10T15:29:10.654Z,3.00
2019-03-10T15:31:40.789Z,2.92
2019-03-10T15:34:10.964Z,2.84
2019-03-10T15:36:41.605Z,2.80
2019-03-10T15:39:12.020Z,2.78
2019-03-10T15:41:42.248Z,2.83
2019-03-10T15:44:12.428Z,2.85
2019-03-10T15:49:14.036Z,2.97
2019-03-10T15:51:44.782Z,2.99
2019-03-10T15:54:14.954Z,3.05
2019-03-10T15:56:45.177Z,3.09
2019-03-10T15:59:15.391Z,3.13
2019-03-10T16:01:48.540Z,3.18
2019-03-10T16:04:23.474Z,3.21
2019-03-10T16:06:53.618Z,3.22
2019-03-10T16:09:23.847Z,3.26
2019-03-10T16:11:54.092Z,3.29
2019-03-10T16:14:24.387Z,3.34
2019-03-10T16:16:54.450Z,3.39
2019-03-10T16:19:24.505Z,3.45
2019-03-10T16:21:54.702Z,3.47
2019-03-10T16:24:24.913Z,3.52
2019-03-10T16:26:58.476Z,3.56
2019-03-10T16:29:28.698Z,3.57
2019-03-10T16:31:58.907Z,3.59
2019-03-10T16:34:29.032Z,3.62
2019-03-10T16:36:59.281Z,3.64
2019-03-10T16:39:29.471Z,3.69
2019-03-10T16:41:59.645Z,3.70
2019-03-10T16:44:53.296Z,3.69
2019-03-10T16:47:30.663Z,3.67
2019-03-10T16:50:09.528Z,3.67
2019-03-10T16:52:47.025Z,3.67
2019-03-10T16:55:25.399Z,3.66
2019-03-10T16:58:07.334Z,3.65
2019-03-10T17:00:45.606Z,3.67
2019-03-10T17:03:26.124Z,3.71
2019-03-10T17:06:03.795Z,3.73
2019-03-10T17:08:41.316Z,3.75
2019-03-10T17:11:19.006Z,3.79
2019-03-10T17:13:55.522Z,3.84
2019-03-10T17:16:33.765Z,3.86
2019-03-10T17:19:10.874Z,3.93
2019-03-10T17:21:47.955Z,3.93
2019-03-10T17:24:24.455Z,4.01
2019-03-10T17:27:01.445Z,4.04
2019-03-10T17:29:37.954Z,4.08
2019-03-10T17:32:15.249Z,4.11
2019-03-10T17:34:54.446Z,4.09
2019-03-10T17:37:30.859Z,4.14
2019-03-10T17:40:08.791Z,4.13
2019-03-10T17:42:45.780Z,4.18
2019-03-10T17:45:26.739Z,4.15
2019-03-10T17:48:05.349Z,4.20
2019-03-10T17:50:42.970Z,4.22
2019-03-10T17:53:23.697Z,4.23
2019-03-10T17:55:59.692Z,4.24
2019-03-10T17:58:36.515Z,4.26
2019-03-10T18:01:13.272Z,4.28
2019-03-10T18:03:50.557Z,4.29
2019-03-10T18:06:30.256Z,4.31
2019-03-10T18:09:09.091Z,4.32
2019-03-10T18:11:45.450Z,4.34
2019-03-10T18:14:23.096Z,4.30
2019-03-10T18:17:01.716Z,4.24
2019-03-10T18:19:38.685Z,4.14
2019-03-10T18:22:16.560Z,4.12
2019-03-10T18:24:53.970Z,4.13
2019-03-10T18:27:31.830Z,4.14
2019-03-10T18:30:09.476Z,4.20
2019-03-10T18:32:47.904Z,4.25
2019-03-10T18:35:24.424Z,4.27
2019-03-10T18:38:02.153Z,4.31
2019-03-10T18:40:38.743Z,4.34
2019-03-10T18:43:15.045Z,4.34
2019-03-10T18:45:53.988Z,4.35
2019-03-10T18:48:30.306Z,4.37
2019-03-10T18:51:06.230Z,4.36
2019-03-10T18:53:42.945Z,4.35
2019-03-10T18:56:17.819Z,4.33
2019-03-10T18:58:57.145Z,4.33
2019-03-10T19:01:34.511Z,4.32
2019-03-10T19:04:10.548Z,4.31
2019-03-10T19:06:54.754Z,4.28
2019-03-10T19:09:29.611Z,4.27
2019-03-10T19:12:05.310Z,4.24
2019-03-10T19:14:35.396Z,4.20
2019-03-10T19:17:06.626Z,4.16
2019-03-10T19:19:36.840Z,4.13
2019-03-10T19:22:07.325Z,4.08
2019-03-10T19:24:37.947Z,4.04
2019-03-10T19:27:08.431Z,3.96
2019-03-10T19:29:39.226Z,3.95
2019-03-10T19:32:13.795Z,3.92
2019-03-10T19:34:46.689Z,3.86
2019-03-10T19:37:17.872Z,3.82
2019-03-10T19:39:48.488Z,3.70
2019-03-10T19:42:19.131Z,3.60
2019-03-10T19:44:49.681Z,3.59
2019-03-10T19:47:20.385Z,3.52
2019-03-10T19:49:50.792Z,3.43
2019-03-10T19:52:21.465Z,3.38
2019-03-10T19:54:52.582Z,3.36
2019-03-10T19:57:22.925Z,3.32
2019-03-10T19:59:53.903Z,3.20
2019-03-10T20:02:24.401Z,3.12
2019-03-10T20:04:54.888Z,3.09
2019-03-10T20:07:25.243Z,3.06
2019-03-10T20:09:55.785Z,2.98
2019-03-10T20:12:26.288Z,2.98
2019-03-10T20:14:56.807Z,2.99
2019-03-10T20:17:27.351Z,3.03
2019-03-10T20:19:57.788Z,3.05
2019-03-10T20:22:28.407Z,3.06
2019-03-10T20:24:59.008Z,3.05
2019-03-10T20:27:29.628Z,3.09
2019-03-10T20:30:00.352Z,3.12
2019-03-10T20:32:30.712Z,3.13
2019-03-10T20:35:01.170Z,3.10
2019-03-10T20:37:31.675Z,3.07
2019-03-10T20:40:02.185Z,3.03
2019-03-10T20:42:32.756Z,3.07
2019-03-10T20:45:03.240Z,3.07
2019-03-10T20:47:34.078Z,3.07
2019-03-10T20:50:04.974Z,3.04
2019-03-10T20:52:35.787Z,3.08
2019-03-10T20:55:06.339Z,3.10
2019-03-10T20:57:36.951Z,3.09
2019-03-10T21:00:20.161Z,3.12
2019-03-10T21:02:47.125Z,3.15
2019-03-10T21:05:18.462Z,3.13
2019-03-10T21:07:49.311Z,3.15
2019-03-10T21:10:20.077Z,3.17
2019-03-10T21:12:50.656Z,3.19
2019-03-10T21:15:21.221Z,3.23
2019-03-10T21:17:52.258Z,3.24
2019-03-10T21:20:26.520Z,3.29
2019-03-10T21:22:57.006Z,3.29
2019-03-10T21:25:29.016Z,3.35
2019-03-10T21:27:59.850Z,3.39
2019-03-10T21:30:30.641Z,3.40
2019-03-10T21:33:01.183Z,3.46
2019-03-10T21:35:33.284Z,3.50
2019-03-10T21:38:04.190Z,3.55
2019-03-10T21:40:34.928Z,3.57
2019-03-10T21:43:06.128Z,3.58
2019-03-10T21:45:36.847Z,3.60
2019-03-10T21:48:07.493Z,3.62
2019-03-10T21:50:38.224Z,3.69
2019-03-10T21:53:09.038Z,3.78
2019-03-10T21:55:39.563Z,3.85
2019-03-10T21:58:10.111Z,3.90
2019-03-10T22:00:40.486Z,3.94
2019-03-10T22:03:11.036Z,3.97
2019-03-10T22:05:41.696Z,3.97
2019-03-10T22:08:12.187Z,3.96
2019-03-10T22:10:43.027Z,3.99
2019-03-10T22:13:13.506Z,3.96
2019-03-10T22:15:44.153Z,3.99
2019-03-10T22:18:14.833Z,3.96
2019-03-10T22:20:45.361Z,3.96
2019-03-10T22:23:21.898Z,3.95
2019-03-10T22:25:52.438Z,3.88
2019-03-10T22:28:22.904Z,3.85
2019-03-10T22:30:53.330Z,3.83
2019-03-10T22:33:23.795Z,3.84
2019-03-10T22:35:54.489Z,3.83
2019-03-10T22:38:25.104Z,3.77
2019-03-10T22:40:55.303Z,3.74
2019-03-10T22:43:25.523Z,3.73
2019-03-10T22:45:55.670Z,3.71
2019-03-10T22:48:25.976Z,3.71
2019-03-10T22:50:56.103Z,3.73
2019-03-10T22:53:26.244Z,3.75
2019-03-10T22:55:56.421Z,3.76
2019-03-10T22:58:26.628Z,3.74
2019-03-10T23:00:58.293Z,3.64
2019-03-10T23:03:28.649Z,3.55
2019-03-10T23:05:58.871Z,3.51
2019-03-10T23:08:29.031Z,3.52
2019-03-10T23:10:59.302Z,3.53
2019-03-10T23:13:29.433Z,3.55
2019-03-10T23:15:59.618Z,3.57
2019-03-10T23:18:29.741Z,3.59
2019-03-10T23:20:59.887Z,3.62
2019-03-10T23:23:30.025Z,3.62
2019-03-10T23:26:00.231Z,3.61
2019-03-10T23:28:30.480Z,3.58
2019-03-10T23:31:00.716Z,3.58
2019-03-10T23:33:31.045Z,3.57
2019-03-10T23:36:01.339Z,3.55
2019-03-10T23:38:31.659Z,3.53
2019-03-10T23:41:01.874Z,3.51
2019-03-10T23:43:31.955Z,3.48
2019-03-10T23:46:02.727Z,3.47
2019-03-10T23:48:32.954Z,3.46
2019-03-10T23:51:03.189Z,3.46
2019-03-10T23:53:33.360Z,3.46
2019-03-10T23:56:03.625Z,3.51
2019-03-10T23:58:33.878Z,3.54
